Time;durP1;ratioP1;P1;durP2;ratioP2;P2;SDS_P1;SDS_P2;PMS_P1;PMS_P2;Temp;Humidity;BMP_temperature;BMP_pressure;BME280_temperature;BME280_humidity;BME280_pressure;Samples;Min_cycle;Max_cycle;Signal;HPM_P1;HPM_P2
2022/04/27 00:00:03;;;;;;;16.83;8.90;;;8.90;44.20;;;;;;5011593;28;20397;-74
2022/04/27 00:02:30;;;;;;;13.70;9.07;;;8.90;44.70;;;;;;5016696;28;20884;-73
2022/04/27 00:04:57;;;;;;;13.97;9.23;;;8.90;44.90;;;;;;5017093;28;20404;-75
2022/04/27 00:07:22;;;;;;;16.08;8.20;;;8.80;45.50;;;;;;5014758;28;20401;-74
2022/04/27 00:09:48;;;;;;;14.23;9.10;;;8.80;45.70;;;;;;5016457;28;20502;-75
2022/04/27 00:12:14;;;;;;;15.38;9.30;;;8.80;45.60;;;;;;5009144;28;20425;-74
2022/04/27 00:14:39;;;;;;;19.50;9.80;;;8.80;46.00;;;;;;5008774;28;20900;-74
2022/04/27 00:17:05;;;;;;;16.63;9.20;;;8.90;45.10;;;;;;5011067;28;20389;-75
2022/04/27 00:19:31;;;;;;;16.52;9.45;;;8.90;44.30;;;;;;5005356;28;20411;-75
2022/04/27 00:21:56;;;;;;;17.45;9.85;;;8.90;44.60;;;;;;5012237;28;20499;-74
2022/04/27 00:24:22;;;;;;;17.75;10.05;;;8.90;45.20;;;;;;5008585;28;20397;-74
2022/04/27 00:26:48;;;;;;;15.07;8.70;;;8.80;45.90;;;;;;5009034;28;20470;-75
2022/04/27 00:29:13;;;;;;;14.80;9.93;;;8.80;45.20;;;;;;5010857;28;20447;-73
2022/04/27 00:31:39;;;;;;;16.10;9.60;;;8.90;45.70;;;;;;5009298;28;20408;-74
2022/04/27 00:34:04;;;;;;;18.70;9.80;;;8.80;46.10;;;;;;5010272;28;20401;-73
2022/04/27 00:36:31;;;;;;;18.17;10.20;;;8.80;45.60;;;;;;5005566;28;20389;-74
2022/04/27 00:38:58;;;;;;;19.23;9.20;;;8.80;47.10;;;;;;5016738;28;20558;-75
2022/04/27 00:41:23;;;;;;;21.93;10.80;;;8.70;47.10;;;;;;5004023;28;20490;-75
2022/04/27 00:43:49;;;;;;;14.53;10.00;;;8.80;46.90;;;;;;5011180;28;20487;-74
2022/04/27 00:46:15;;;;;;;15.97;9.93;;;8.90;45.20;;;;;;5007887;28;20416;-74
2022/04/27 00:48:41;;;;;;;19.00;10.00;;;8.90;45.30;;;;;;5008471;28;20404;-73
2022/04/27 00:51:10;;;;;;;20.70;10.27;;;8.90;45.70;;;;;;5008279;28;20773;-75
2022/04/27 00:53:37;;;;;;;17.05;9.55;;;8.90;45.50;;;;;;5005124;28;20483;-75
2022/04/27 00:56:03;;;;;;;16.70;10.30;;;8.80;45.40;;;;;;5009639;28;20521;-74
2022/04/27 00:58:29;;;;;;;16.88;9.23;;;8.80;45.70;;;;;;5015006;28;20481;-74
2022/04/27 01:00:55;;;;;;;13.98;9.13;;;8.80;45.90;;;;;;5004613;28;20431;-74
2022/04/27 01:03:22;;;;;;;14.23;9.50;;;8.80;45.70;;;;;;5009072;28;20411;-75
2022/04/27 01:05:49;;;;;;;14.23;9.93;;;8.90;46.30;;;;;;5005629;28;20984;-72
2022/04/27 01:08:22;;;;;;;16.92;9.82;;;8.90;46.40;;;;;;5007035;28;20479;-74
2022/04/27 01:10:48;;;;;;;18.05;10.20;;;8.90;46.00;;;;;;5009477;28;20540;-74
2022/04/27 01:13:15;;;;;;;19.05;9.93;;;8.90;46.20;;;;;;5004610;28;20397;-75
2022/04/27 01:15:41;;;;;;;15.07;10.13;;;8.90;46.70;;;;;;5010369;28;20466;-74
2022/04/27 01:18:10;;;;;;;21.73;10.68;;;8.90;46.60;;;;;;5006946;28;20435;-74
2022/04/27 01:20:37;;;;;;;15.90;10.48;;;9.00;46.70;;;;;;5008189;28;20491;-74
2022/04/27 01:23:04;;;;;;;16.97;10.10;;;8.90;46.60;;;;;;5003785;28;20514;-74
2022/04/27 01:26:13;;;;;;;17.73;10.23;;;9.00;45.90;;;;;;5010971;28;20774;-75
2022/04/27 01:28:39;;;;;;;19.80;10.70;;;9.00;45.70;;;;;;4999596;28;20404;-74
2022/04/27 01:31:07;;;;;;;20.20;10.50;;;9.00;45.70;;;;;;5009312;28;20491;-74
2022/04/27 01:33:36;;;;;;;16.20;9.90;;;9.00;45.90;;;;;;5012999;28;20422;-74
2022/04/27 01:36:03;;;;;;;19.02;10.30;;;8.90;46.00;;;;;;5007598;28;20401;-74
2022/04/27 01:38:39;;;;;;;21.52;10.60;;;9.00;46.90;;;;;;5016783;28;20409;-75
2022/04/27 01:41:05;;;;;;;16.25;10.80;;;9.00;46.40;;;;;;5012756;28;20396;-73
2022/04/27 01:43:33;;;;;;;22.05;10.98;;;9.00;45.80;;;;;;5017870;28;21879;-75
2022/04/27 01:45:59;;;;;;;17.42;11.13;;;9.00;46.00;;;;;;5015663;28;20470;-74
2022/04/27 01:48:26;;;;;;;16.02;10.38;;;9.00;47.10;;;;;;5016806;28;20466;-73
2022/04/27 01:50:52;;;;;;;24.50;10.77;;;8.90;47.80;;;;;;5013018;28;20427;-72
2022/04/27 01:56:03;;;;;;;21.35;10.93;;;8.80;47.40;;;;;;5009081;28;20488;-74
2022/04/27 01:58:29;;;;;;;22.58;12.10;;;8.70;47.80;;;;;;5013750;28;20495;-73
2022/04/27 02:00:55;;;;;;;19.63;11.10;;;8.60;49.50;;;;;;5008660;28;20401;-74
2022/04/27 02:03:21;;;;;;;19.17;11.50;;;8.70;49.80;;;;;;5015971;28;20397;-74
2022/04/27 02:05:47;;;;;;;16.60;10.93;;;8.70;49.80;;;;;;5015503;28;20512;-72
2022/04/27 02:08:13;;;;;;;16.27;10.73;;;8.70;49.50;;;;;;5012888;28;20881;-72
2022/04/27 02:10:39;;;;;;;16.45;10.65;;;8.70;50.20;;;;;;5009371;28;20409;-75
2022/04/27 02:13:07;;;;;;;18.75;11.80;;;8.60;50.00;;;;;;5010837;28;20427;-74
2022/04/27 02:15:33;;;;;;;18.80;11.27;;;8.50;50.50;;;;;;5010779;28;20791;-75
2022/04/27 02:18:00;;;;;;;24.17;12.10;;;8.60;49.10;;;;;;5007863;28;20547;-73
2022/04/27 02:20:26;;;;;;;21.52;11.90;;;8.50;49.90;;;;;;5011843;28;20432;-74
2022/04/27 02:22:52;;;;;;;19.02;11.73;;;8.40;51.10;;;;;;5011184;28;20759;-74
2022/04/27 02:25:18;;;;;;;16.30;10.57;;;8.50;49.50;;;;;;5004630;28;20551;-74
2022/04/27 02:27:44;;;;;;;19.02;10.65;;;8.50;48.30;;;;;;5005245;28;20409;-73
2022/04/27 02:30:11;;;;;;;20.33;11.73;;;8.50;48.30;;;;;;5013670;28;20436;-74
2022/04/27 02:32:37;;;;;;;23.13;11.60;;;8.40;49.10;;;;;;5014888;28;20510;-73
2022/04/27 02:35:04;;;;;;;20.80;11.60;;;8.30;49.60;;;;;;5008819;28;20862;-73
2022/04/27 02:37:30;;;;;;;17.05;12.00;;;8.30;49.90;;;;;;5011161;28;20977;-74
2022/04/27 02:39:57;;;;;;;24.17;11.70;;;8.30;50.50;;;;;;5015745;28;20417;-74
2022/04/27 02:42:23;;;;;;;23.55;12.00;;;8.20;50.60;;;;;;5011697;28;20419;-72
2022/04/27 02:44:49;;;;;;;22.00;12.07;;;8.20;51.10;;;;;;5011380;28;20902;-73
2022/04/27 02:47:14;;;;;;;25.17;11.98;;;8.10;54.40;;;;;;5008969;28;20467;-76
2022/04/27 02:52:25;;;;;;;21.20;11.65;;;8.00;52.40;;;;;;5012756;28;20465;-76
2022/04/27 02:54:51;;;;;;;19.63;11.07;;;8.00;52.80;;;;;;5029345;28;20416;-75
2022/04/27 02:57:16;;;;;;;23.17;13.05;;;8.00;52.50;;;;;;5024402;28;20405;-73
2022/04/27 02:59:43;;;;;;;22.58;12.48;;;7.90;52.80;;;;;;5027486;28;20401;-75
2022/04/27 03:02:09;;;;;;;25.33;12.77;;;7.90;54.00;;;;;;5022065;28;20403;-72
2022/04/27 03:04:34;;;;;;;23.23;12.07;;;7.80;54.20;;;;;;5027571;28;20418;-73
2022/04/27 03:07:00;;;;;;;26.53;12.23;;;7.80;54.00;;;;;;5029784;28;20404;-74
2022/04/27 03:09:26;;;;;;;21.77;12.30;;;7.80;55.10;;;;;;5012214;28;20419;-74
2022/04/27 03:11:52;;;;;;;21.25;12.50;;;7.80;55.10;;;;;;5011234;28;20491;-74
2022/04/27 03:14:19;;;;;;;24.27;12.65;;;7.80;55.40;;;;;;5012198;28;20413;-74
2022/04/27 03:16:45;;;;;;;25.20;13.80;;;7.80;55.80;;;;;;5013926;28;20404;-74
2022/04/27 03:19:11;;;;;;;24.95;14.15;;;7.70;56.20;;;;;;5006200;28;20405;-74
2022/04/27 03:21:37;;;;;;;22.88;13.32;;;7.60;56.60;;;;;;5007502;28;20917;-75
2022/04/27 03:24:03;;;;;;;21.77;13.17;;;7.60;56.80;;;;;;5008326;28;20444;-75
2022/04/27 03:26:29;;;;;;;22.67;12.80;;;7.60;57.20;;;;;;5009365;28;20419;-74
2022/04/27 03:28:54;;;;;;;23.95;13.18;;;7.50;57.40;;;;;;5009220;28;20443;-73
2022/04/27 03:31:20;;;;;;;21.75;12.50;;;7.50;57.80;;;;;;5010975;28;20516;-73
2022/04/27 03:33:46;;;;;;;28.10;13.60;;;7.50;58.50;;;;;;5005509;28;20569;-74
2022/04/27 03:36:11;;;;;;;27.97;14.10;;;7.40;59.10;;;;;;5011315;28;20495;-75
2022/04/27 03:38:38;;;;;;;20.30;13.50;;;7.40;60.00;;;;;;5016227;28;20400;-74
2022/04/27 03:41:07;;;;;;;25.57;14.77;;;7.40;60.20;;;;;;5005009;28;20530;-74
2022/04/27 03:43:33;;;;;;;22.73;14.38;;;7.40;60.90;;;;;;5010109;28;20396;-74
2022/04/27 03:45:59;;;;;;;25.90;14.10;;;7.30;61.80;;;;;;5012591;28;20547;-74
2022/04/27 03:48:24;;;;;;;18.85;13.45;;;7.30;62.30;;;;;;5008479;28;20402;-76
2022/04/27 03:50:50;;;;;;;24.02;14.02;;;7.30;61.80;;;;;;5026280;28;20405;-76
2022/04/27 03:53:16;;;;;;;26.25;14.13;;;7.40;62.20;;;;;;5018451;28;20984;-74
2022/04/27 03:55:41;;;;;;;24.23;14.60;;;7.30;62.40;;;;;;5017939;28;20419;-73
2022/04/27 03:58:07;;;;;;;25.88;14.10;;;7.20;64.10;;;;;;5015893;28;20436;-75
2022/04/27 04:00:33;;;;;;;25.48;14.38;;;7.30;63.60;;;;;;5011513;28;20393;-76
2022/04/27 04:03:03;;;;;;;22.00;13.50;;;7.30;63.50;;;;;;5008870;28;20560;-74
2022/04/27 04:05:30;;;;;;;27.75;13.88;;;7.20;64.40;;;;;;5011607;28;20500;-74
2022/04/27 04:07:59;;;;;;;24.73;14.07;;;7.20;63.60;;;;;;5007477;28;20467;-74
2022/04/27 04:10:24;;;;;;;19.98;13.65;;;7.20;63.60;;;;;;5012313;28;20499;-74
2022/04/27 04:12:50;;;;;;;24.00;14.38;;;7.20;63.80;;;;;;5007765;28;20485;-75
2022/04/27 04:15:16;;;;;;;24.35;13.70;;;7.10;64.80;;;;;;5007666;28;20472;-74
2022/04/27 04:17:45;;;;;;;26.30;14.32;;;7.10;64.70;;;;;;5013217;28;20409;-72
2022/04/27 04:20:17;;;;;;;21.60;13.40;;;7.20;64.60;;;;;;5006794;28;20402;-73
2022/04/27 04:22:44;;;;;;;23.45;13.57;;;7.20;62.90;;;;;;5006753;28;20527;-73
2022/04/27 04:30:39;;;;;;;20.67;13.50;;;7.20;63.50;;;;;;5005375;28;20492;-74
2022/04/27 04:33:05;;;;;;;25.13;14.00;;;7.10;63.40;;;;;;5008507;28;20822;-75
2022/04/27 04:35:31;;;;;;;21.90;13.50;;;7.10;63.90;;;;;;5007273;28;20397;-73
2022/04/27 04:37:56;;;;;;;23.63;13.90;;;7.10;64.40;;;;;;5013407;28;20397;-73
2022/04/27 04:40:22;;;;;;;20.40;14.65;;;7.10;64.30;;;;;;5003387;28;20453;-73
2022/04/27 04:42:47;;;;;;;23.92;14.20;;;6.90;68.00;;;;;;5006281;28;20564;-73
2022/04/27 04:45:13;;;;;;;21.38;14.25;;;7.00;69.00;;;;;;5006109;28;20408;-74
2022/04/27 04:47:42;;;;;;;23.95;14.32;;;7.10;67.90;;;;;;5001919;28;20406;-75
2022/04/27 04:50:11;;;;;;;25.65;14.32;;;7.30;63.40;;;;;;5016180;28;20404;-74
2022/04/27 04:52:37;;;;;;;25.15;14.00;;;7.40;60.70;;;;;;5012306;28;20503;-75
2022/04/27 04:55:03;;;;;;;24.63;14.10;;;7.50;59.90;;;;;;5017778;28;20455;-74
2022/04/27 04:57:29;;;;;;;24.80;13.80;;;7.60;59.20;;;;;;5013538;28;20422;-71
2022/04/27 04:59:54;;;;;;;21.00;13.68;;;7.50;59.30;;;;;;5007612;28;20412;-72
2022/04/27 05:02:20;;;;;;;27.42;14.07;;;7.50;59.50;;;;;;5001558;28;20760;-73
2022/04/27 05:04:46;;;;;;;19.38;13.57;;;7.50;59.90;;;;;;5002407;28;20528;-73
2022/04/27 05:07:11;;;;;;;22.75;13.52;;;7.60;59.60;;;;;;5003822;28;20400;-72
2022/04/27 05:09:37;;;;;;;22.83;13.37;;;7.70;58.90;;;;;;5001864;28;20402;-73
2022/04/27 05:12:04;;;;;;;22.95;14.40;;;7.80;58.90;;;;;;5007151;28;20404;-72
2022/04/27 05:14:30;;;;;;;23.88;15.20;;;7.80;57.30;;;;;;5003714;28;20486;-73
2022/04/27 05:16:56;;;;;;;21.00;15.10;;;7.80;56.60;;;;;;5004519;28;20413;-73
2022/04/27 05:19:22;;;;;;;27.25;13.93;;;7.80;56.60;;;;;;5006060;28;20426;-74
2022/04/27 05:21:48;;;;;;;25.05;15.00;;;7.80;56.40;;;;;;5007675;28;20424;-74
2022/04/27 05:24:14;;;;;;;23.50;13.73;;;7.80;56.80;;;;;;5001388;28;20417;-74
2022/04/27 05:26:40;;;;;;;21.43;14.30;;;7.90;57.20;;;;;;4999654;28;20414;-74
2022/04/27 05:31:55;;;;;;;28.05;15.25;;;7.90;56.60;;;;;;5013598;28;20754;-73
2022/04/27 05:34:25;;;;;;;27.13;15.05;;;7.90;57.90;;;;;;5010491;28;20502;-73
2022/04/27 05:36:51;;;;;;;21.30;14.17;;;7.90;57.80;;;;;;5018048;28;20572;-73
2022/04/27 05:39:18;;;;;;;22.50;14.40;;;7.90;56.80;;;;;;5009328;28;20397;-74
2022/04/27 05:41:44;;;;;;;24.48;15.00;;;7.90;57.10;;;;;;5008987;28;20435;-73
2022/04/27 05:44:12;;;;;;;26.17;15.77;;;7.90;56.90;;;;;;5012870;28;20461;-73
2022/04/27 05:46:40;;;;;;;24.52;15.30;;;7.80;57.90;;;;;;5005254;28;20431;-73
2022/04/27 05:49:06;;;;;;;26.13;14.82;;;7.90;57.60;;;;;;5001824;28;21035;-74
2022/04/27 05:51:31;;;;;;;22.05;15.45;;;8.00;56.60;;;;;;5003965;28;20511;-74
2022/04/27 05:53:57;;;;;;;23.88;15.60;;;8.10;56.30;;;;;;5006057;28;20409;-72
2022/04/27 05:56:24;;;;;;;28.42;15.50;;;8.10;55.60;;;;;;5009807;28;20400;-74
2022/04/27 05:58:50;;;;;;;25.05;15.38;;;8.20;55.70;;;;;;5013432;28;20926;-74
2022/04/27 06:01:16;;;;;;;28.17;15.30;;;8.30;54.50;;;;;;5012725;28;20408;-73
2022/04/27 06:03:42;;;;;;;24.95;15.88;;;8.30;55.30;;;;;;5009479;28;20409;-73
2022/04/27 06:06:08;;;;;;;24.23;14.45;;;8.40;54.90;;;;;;5015827;28;20556;-73
2022/04/27 06:08:33;;;;;;;32.30;16.60;;;8.60;53.00;;;;;;5008845;28;20485;-73
2022/04/27 06:10:59;;;;;;;28.10;15.10;;;8.60;52.30;;;;;;5006211;28;20397;-73
2022/04/27 06:13:25;;;;;;;31.13;14.93;;;8.70;51.80;;;;;;5001535;28;20888;-73
2022/04/27 06:15:51;;;;;;;22.27;14.83;;;8.90;51.70;;;;;;5012875;28;20418;-74
2022/04/27 06:18:16;;;;;;;25.83;15.07;;;9.00;50.00;;;;;;5003903;28;20412;-74
2022/04/27 06:20:42;;;;;;;26.00;13.18;;;9.10;50.10;;;;;;5004915;28;20405;-74
2022/04/27 06:23:09;;;;;;;24.95;14.88;;;9.30;47.80;;;;;;5003798;28;20412;-74
2022/04/27 06:25:35;;;;;;;23.92;14.13;;;9.40;47.80;;;;;;5010831;28;20429;-74
2022/04/27 06:28:01;;;;;;;28.58;13.93;;;9.50;45.30;;;;;;5007010;28;20782;-73
2022/04/27 06:30:27;;;;;;;23.73;14.07;;;9.60;44.40;;;;;;5000834;28;20405;-74
2022/04/27 06:32:52;;;;;;;23.00;13.20;;;9.70;43.40;;;;;;5005912;28;20420;-73
2022/04/27 06:35:18;;;;;;;19.30;13.65;;;9.80;43.50;;;;;;5009229;28;20423;-73
2022/04/27 06:37:44;;;;;;;23.80;14.30;;;9.90;43.50;;;;;;5009720;28;20465;-74
2022/04/27 06:40:10;;;;;;;28.42;13.45;;;10.00;43.20;;;;;;5009532;28;20436;-73
2022/04/27 06:42:36;;;;;;;25.50;14.07;;;10.10;41.60;;;;;;5011236;28;20907;-73
2022/04/27 06:45:02;;;;;;;20.38;13.10;;;10.20;41.30;;;;;;5013633;28;20498;-73
2022/04/27 06:47:28;;;;;;;20.58;12.73;;;10.40;40.20;;;;;;5017765;28;20416;-73
2022/04/27 06:49:54;;;;;;;20.10;12.40;;;10.50;39.00;;;;;;5017675;28;20975;-74
2022/04/27 06:52:19;;;;;;;22.23;12.55;;;10.60;37.30;;;;;;5017605;28;20932;-73
2022/04/27 06:54:45;;;;;;;25.40;13.95;;;10.60;37.30;;;;;;5025418;28;20413;-75
2022/04/27 06:57:11;;;;;;;24.52;11.90;;;10.60;39.00;;;;;;5021927;28;20432;-74
2022/04/27 06:59:36;;;;;;;19.52;11.65;;;10.80;37.80;;;;;;5019393;28;20490;-74
2022/04/27 07:02:03;;;;;;;20.50;12.85;;;10.90;36.10;;;;;;5022434;28;20408;-74
2022/04/27 07:04:31;;;;;;;20.58;12.10;;;10.90;36.20;;;;;;5022616;28;20412;-76
2022/04/27 07:06:57;;;;;;;15.75;11.00;;;11.00;35.60;;;;;;5021695;28;20404;-75
2022/04/27 07:09:23;;;;;;;20.67;12.18;;;11.20;34.40;;;;;;5020909;28;20414;-73
2022/04/27 07:11:48;;;;;;;20.08;11.10;;;11.30;34.50;;;;;;5022282;28;20413;-74
2022/04/27 07:14:16;;;;;;;17.03;11.43;;;11.30;34.70;;;;;;5022695;28;20403;-74
2022/04/27 07:16:43;;;;;;;16.23;10.50;;;11.40;34.50;;;;;;5018559;28;20397;-74
2022/04/27 07:19:08;;;;;;;17.98;11.68;;;11.60;31.40;;;;;;5018963;28;20408;-75
2022/04/27 07:21:34;;;;;;;20.07;10.30;;;11.60;32.30;;;;;;5010654;28;20500;-74
2022/04/27 07:24:02;;;;;;;17.88;10.00;;;11.70;29.90;;;;;;5009956;28;20412;-76
2022/04/27 07:26:28;;;;;;;14.90;9.80;;;11.70;30.40;;;;;;5011963;28;20416;-76
2022/04/27 07:28:55;;;;;;;15.68;9.68;;;11.80;31.30;;;;;;5013070;28;20427;-76
2022/04/27 07:31:22;;;;;;;17.30;9.60;;;11.90;30.20;;;;;;5010531;28;20419;-76
2022/04/27 07:33:47;;;;;;;21.60;9.80;;;12.00;29.10;;;;;;5012335;28;20486;-76
2022/04/27 07:36:13;;;;;;;14.70;9.50;;;12.10;29.20;;;;;;5018866;28;20497;-76
2022/04/27 07:38:38;;;;;;;17.10;8.90;;;12.10;27.70;;;;;;5010152;28;20513;-75
2022/04/27 07:41:07;;;;;;;15.85;8.70;;;12.10;26.90;;;;;;5012299;28;20822;-76
2022/04/27 07:43:33;;;;;;;13.60;8.87;;;11.90;26.60;;;;;;5010826;28;20762;-76
2022/04/27 07:46:00;;;;;;;17.35;8.10;;;11.90;27.30;;;;;;5009139;28;20781;-76
2022/04/27 07:48:32;;;;;;;10.95;7.65;;;12.10;26.10;;;;;;5013032;28;20405;-76
2022/04/27 07:51:01;;;;;;;11.88;7.85;;;12.30;25.20;;;;;;5016536;28;20423;-76
2022/04/27 07:53:27;;;;;;;13.50;8.00;;;12.30;24.60;;;;;;5027925;28;20420;-76
2022/04/27 07:55:53;;;;;;;11.85;7.13;;;12.40;25.60;;;;;;5011414;28;21712;-75
2022/04/27 07:58:18;;;;;;;12.25;6.57;;;12.50;23.10;;;;;;5004492;28;20499;-74
2022/04/27 08:00:44;;;;;;;12.55;5.70;;;12.60;23.40;;;;;;5008666;28;20463;-74
2022/04/27 08:03:09;;;;;;;11.70;6.63;;;12.50;21.30;;;;;;5007024;28;20417;-72
2022/04/27 08:05:35;;;;;;;15.93;7.60;;;12.50;22.40;;;;;;5008049;28;20519;-73
2022/04/27 08:08:01;;;;;;;13.27;7.50;;;12.60;23.10;;;;;;5014867;28;20901;-74
2022/04/27 08:10:26;;;;;;;15.77;7.60;;;12.70;22.60;;;;;;5014917;28;20425;-75
2022/04/27 08:12:52;;;;;;;12.67;7.30;;;12.70;21.80;;;;;;5013820;28;20421;-78
2022/04/27 08:15:23;;;;;;;9.70;6.88;;;12.80;23.00;;;;;;5015862;28;20466;-76
2022/04/27 08:18:06;;;;;;;17.95;7.97;;;12.90;23.70;;;;;;5019402;28;20475;-76
2022/04/27 08:23:32;;;;;;;10.80;6.80;;;13.00;20.30;;;;;;5007577;28;20470;-74
2022/04/27 08:26:00;;;;;;;13.35;7.30;;;12.90;19.70;;;;;;5011168;28;20463;-75
2022/04/27 08:28:27;;;;;;;13.30;6.60;;;13.00;20.80;;;;;;5010530;28;20413;-75
2022/04/27 08:30:53;;;;;;;11.82;6.47;;;13.10;19.20;;;;;;5008333;28;20475;-76
2022/04/27 08:33:19;;;;;;;10.90;6.40;;;13.00;18.20;;;;;;5005233;28;20413;-75
2022/04/27 08:35:46;;;;;;;9.43;6.00;;;12.90;17.90;;;;;;5006021;28;20838;-75
2022/04/27 08:38:13;;;;;;;11.82;6.75;;;12.90;17.60;;;;;;5007265;28;20405;-77
2022/04/27 08:40:41;;;;;;;11.55;6.78;;;12.90;18.40;;;;;;5005343;28;20410;-75
2022/04/27 08:43:07;;;;;;;12.25;7.18;;;13.10;19.00;;;;;;5001592;28;20401;-76
2022/04/27 08:45:33;;;;;;;15.05;8.02;;;13.20;19.00;;;;;;5001889;28;20995;-75
2022/04/27 08:47:59;;;;;;;15.27;7.60;;;13.20;19.70;;;;;;5006437;28;20489;-74
2022/04/27 08:50:26;;;;;;;13.20;7.97;;;13.30;19.90;;;;;;5008841;28;20481;-75
2022/04/27 08:52:52;;;;;;;11.60;8.27;;;13.40;19.90;;;;;;5006358;28;20419;-75
2022/04/27 08:55:19;;;;;;;16.77;8.65;;;13.40;19.70;;;;;;5005610;28;20404;-74
2022/04/27 08:57:46;;;;;;;16.10;7.97;;;13.60;19.50;;;;;;5008827;28;20462;-76
2022/04/27 09:00:14;;;;;;;17.30;8.70;;;13.50;18.40;;;;;;5011007;28;20419;-74
2022/04/27 09:02:40;;;;;;;15.98;8.30;;;13.30;18.80;;;;;;5011705;28;20468;-74
2022/04/27 09:05:17;;;;;;;13.10;9.02;;;13.20;18.80;;;;;;5013044;28;20405;-75
2022/04/27 09:07:44;;;;;;;19.83;9.50;;;13.30;19.00;;;;;;5019244;28;20495;-75
2022/04/27 09:10:14;;;;;;;14.87;9.30;;;13.40;19.70;;;;;;5013243;28;20604;-76
2022/04/27 09:12:58;;;;;;;20.45;9.20;;;13.30;19.70;;;;;;5007858;28;20416;-75
2022/04/27 09:15:26;;;;;;;17.00;9.57;;;13.20;19.10;;;;;;5010400;28;20405;-77
2022/04/27 09:20:54;;;;;;;20.40;10.55;;;13.30;19.50;;;;;;5008042;28;20977;-74
2022/04/27 09:23:26;;;;;;;14.23;8.93;;;13.40;20.00;;;;;;5014631;28;20410;-74
2022/04/27 09:25:55;;;;;;;14.93;9.30;;;13.50;19.70;;;;;;5010587;28;20497;-72
2022/04/27 09:28:26;;;;;;;14.70;9.65;;;13.80;18.50;;;;;;5005403;28;20420;-74
2022/04/27 09:30:52;;;;;;;16.45;10.40;;;13.80;18.50;;;;;;5005527;28;20402;-73
2022/04/27 09:33:30;;;;;;;17.85;10.30;;;13.90;19.10;;;;;;5005665;28;20407;-73
2022/04/27 09:35:56;;;;;;;16.10;9.38;;;14.10;18.10;;;;;;5002816;28;20496;-73
2022/04/27 09:38:22;;;;;;;15.88;10.77;;;14.00;17.60;;;;;;5005741;28;20408;-73
2022/04/27 09:40:48;;;;;;;15.20;8.90;;;14.00;17.70;;;;;;5008414;28;20971;-74
2022/04/27 09:43:15;;;;;;;14.00;9.50;;;13.80;16.10;;;;;;5004705;28;20779;-74
2022/04/27 09:45:42;;;;;;;15.03;9.33;;;13.80;16.40;;;;;;5013221;28;20405;-73
2022/04/27 09:48:11;;;;;;;14.13;9.70;;;13.90;16.40;;;;;;5006307;28;20916;-74
2022/04/27 09:50:52;;;;;;;14.48;9.00;;;13.90;16.70;;;;;;5008992;28;20416;-74
2022/04/27 09:53:18;;;;;;;15.40;9.40;;;14.10;17.00;;;;;;5005001;28;20515;-75
2022/04/27 09:55:59;;;;;;;13.60;9.70;;;14.20;16.00;;;;;;5010789;28;20445;-73
2022/04/27 09:58:27;;;;;;;14.73;9.90;;;14.20;16.50;;;;;;5017718;28;20444;-75
2022/04/27 10:00:57;;;;;;;14.80;9.88;;;14.20;16.30;;;;;;5002392;28;20420;-73
2022/04/27 10:03:25;;;;;;;12.63;9.68;;;14.10;15.50;;;;;;5000450;28;20434;-73
2022/04/27 10:05:51;;;;;;;14.43;10.48;;;14.10;16.40;;;;;;5015104;28;20452;-74
2022/04/27 10:08:19;;;;;;;13.05;9.77;;;14.20;16.70;;;;;;5002468;28;20508;-75
2022/04/27 10:10:46;;;;;;;15.40;10.02;;;14.60;17.00;;;;;;5012098;28;20402;-75
2022/04/27 10:13:15;;;;;;;13.27;10.02;;;14.80;16.20;;;;;;5012044;28;20418;-75
2022/04/27 10:15:45;;;;;;;19.13;11.13;;;14.90;15.80;;;;;;5012573;28;20500;-74
2022/04/27 10:18:16;;;;;;;14.20;10.30;;;14.70;15.50;;;;;;5011660;28;20401;-74
2022/04/27 10:20:42;;;;;;;20.30;10.30;;;14.60;15.00;;;;;;5013501;28;20410;-74
2022/04/27 10:23:24;;;;;;;16.58;10.00;;;14.50;15.40;;;;;;5007903;28;20413;-73
2022/04/27 10:26:12;;;;;;;21.30;11.90;;;14.60;15.60;;;;;;5011335;28;20412;-75
2022/04/27 10:28:51;;;;;;;15.38;10.50;;;14.50;15.10;;;;;;5006085;28;20408;-74
2022/04/27 10:31:55;;;;;;;17.48;10.90;;;14.50;15.30;;;;;;5011009;28;20885;-74
2022/04/27 10:34:23;;;;;;;18.87;10.90;;;14.60;15.10;;;;;;5012169;28;20414;-75
2022/04/27 10:36:52;;;;;;;16.05;10.50;;;14.90;15.90;;;;;;5009804;28;20427;-75
2022/04/27 10:39:20;;;;;;;17.42;10.88;;;15.10;14.70;;;;;;5005860;28;20487;-74
2022/04/27 10:41:55;;;;;;;19.73;10.75;;;15.10;14.80;;;;;;5008357;28;20404;-75
2022/04/27 10:44:21;;;;;;;18.40;9.93;;;15.40;15.10;;;;;;5011353;28;20920;-74
2022/04/27 10:46:47;;;;;;;13.38;9.82;;;15.80;15.00;;;;;;5009022;28;20411;-75
2022/04/27 10:49:28;;;;;;;17.27;10.50;;;16.00;15.00;;;;;;5008036;28;20457;-74
2022/04/27 10:52:05;;;;;;;15.82;9.82;;;16.00;14.00;;;;;;5013855;28;20631;-78
2022/04/27 10:54:37;;;;;;;17.17;10.55;;;16.10;14.50;;;;;;5007341;28;20410;-75
2022/04/27 10:57:14;;;;;;;18.33;11.60;;;15.80;13.00;;;;;;5010763;28;20785;-74
2022/04/27 10:59:51;;;;;;;20.13;11.60;;;15.70;14.30;;;;;;5010735;28;20400;-75
2022/04/27 11:02:38;;;;;;;14.40;10.30;;;15.40;13.80;;;;;;5006901;28;20778;-74
2022/04/27 11:05:13;;;;;;;14.68;10.82;;;15.50;15.20;;;;;;5008135;28;20408;-75
2022/04/27 11:07:43;;;;;;;16.20;10.18;;;15.90;14.50;;;;;;5009350;28;20405;-75
2022/04/27 11:10:20;;;;;;;15.70;10.43;;;16.00;14.70;;;;;;5009907;28;20415;-73
2022/04/27 11:12:53;;;;;;;15.88;10.02;;;16.10;15.20;;;;;;5011077;28;20428;-75
2022/04/27 11:15:23;;;;;;;14.40;11.00;;;16.20;12.80;;;;;;5009057;28;20455;-74
2022/04/27 11:17:59;;;;;;;21.00;11.13;;;15.90;13.80;;;;;;5009135;28;20396;-74
2022/04/27 11:20:34;;;;;;;18.35;10.80;;;16.00;15.40;;;;;;5009811;28;20408;-74
2022/04/27 11:23:03;;;;;;;16.30;11.30;;;16.20;14.00;;;;;;5005105;28;20408;-73
2022/04/27 11:25:53;;;;;;;13.68;11.35;;;16.30;14.10;;;;;;5005626;28;20423;-74
2022/04/27 11:28:19;;;;;;;15.73;11.13;;;16.30;13.50;;;;;;5000330;28;20416;-74
2022/04/27 11:30:45;;;;;;;18.90;10.80;;;16.40;13.40;;;;;;5010843;28;20769;-73
2022/04/27 11:33:16;;;;;;;15.45;10.48;;;16.50;14.10;;;;;;5010682;28;20413;-73
2022/04/27 11:35:45;;;;;;;17.15;10.57;;;16.50;13.00;;;;;;5007672;28;20788;-75
2022/04/27 11:38:15;;;;;;;20.13;11.85;;;16.50;14.00;;;;;;5017610;28;20419;-78
2022/04/27 11:40:41;;;;;;;17.27;10.52;;;16.60;14.10;;;;;;5011236;28;20419;-74
2022/04/27 11:43:07;;;;;;;20.23;11.50;;;16.80;12.50;;;;;;5004593;28;20499;-75
2022/04/27 11:45:33;;;;;;;18.03;11.50;;;16.70;11.80;;;;;;5013343;28;20421;-74
2022/04/27 11:48:07;;;;;;;15.98;11.32;;;16.30;12.20;;;;;;5008321;28;20412;-74
2022/04/27 11:50:36;;;;;;;18.90;11.60;;;16.30;13.80;;;;;;5015337;28;20410;-74
2022/04/27 11:53:07;;;;;;;19.63;11.30;;;16.60;13.90;;;;;;5024670;28;20419;-74
2022/04/27 11:55:34;;;;;;;15.60;11.32;;;16.60;11.90;;;;;;5023963;28;20405;-74
2022/04/27 11:58:01;;;;;;;21.30;11.65;;;16.60;12.20;;;;;;5020144;28;20404;-74
2022/04/27 12:00:28;;;;;;;16.85;10.93;;;16.60;11.60;;;;;;5011677;28;20406;-74
2022/04/27 12:03:03;;;;;;;16.80;11.10;;;16.50;11.90;;;;;;5011297;28;20405;-74
2022/04/27 12:05:30;;;;;;;18.20;10.13;;;16.60;13.00;;;;;;5008960;28;20414;-75
2022/04/27 12:07:57;;;;;;;22.87;10.17;;;16.60;12.00;;;;;;5017759;28;20907;-75
2022/04/27 12:10:22;;;;;;;15.65;9.55;;;16.70;12.50;;;;;;5013872;28;20417;-77
2022/04/27 12:12:48;;;;;;;15.20;10.50;;;16.90;12.80;;;;;;5013792;28;20426;-76
2022/04/27 12:15:14;;;;;;;14.05;9.70;;;16.90;11.80;;;;;;5012133;28;20413;-73
2022/04/27 12:18:01;;;;;;;18.30;10.90;;;16.60;11.00;;;;;;5016958;28;20474;-74
2022/04/27 12:20:41;;;;;;;19.13;11.38;;;16.10;12.50;;;;;;5006804;28;20398;-72
2022/04/27 12:23:07;;;;;;;20.13;11.27;;;16.40;12.60;;;;;;5004571;28;20482;-73
2022/04/27 12:25:46;;;;;;;16.33;11.02;;;16.60;12.70;;;;;;5001679;28;20519;-73
2022/04/27 12:28:15;;;;;;;19.75;11.50;;;16.90;11.60;;;;;;4998936;28;20397;-73
2022/04/27 12:30:54;;;;;;;17.15;11.57;;;17.10;10.90;;;;;;4997594;28;20748;-72
2022/04/27 12:33:22;;;;;;;17.30;11.25;;;17.00;11.00;;;;;;5009117;28;20409;-73
2022/04/27 12:38:38;;;;;;;17.10;10.77;;;17.10;12.90;;;;;;5001608;28;20394;-72
2022/04/27 12:41:04;;;;;;;20.10;11.02;;;16.80;11.90;;;;;;4999971;28;20405;-73
2022/04/27 12:43:32;;;;;;;24.83;10.93;;;17.00;12.60;;;;;;5000194;28;20844;-73
2022/04/27 12:46:07;;;;;;;16.33;11.10;;;17.30;12.10;;;;;;5005153;28;20513;-73
2022/04/27 12:48:35;;;;;;;19.17;11.43;;;17.20;10.70;;;;;;5004660;28;20570;-73
2022/04/27 12:51:07;;;;;;;16.00;10.63;;;17.20;11.30;;;;;;5005492;28;20402;-73
2022/04/27 12:53:35;;;;;;;17.10;11.85;;;16.60;12.30;;;;;;5004751;28;20545;-75
2022/04/27 12:56:01;;;;;;;15.32;11.20;;;16.70;12.10;;;;;;4998631;28;20876;-72
2022/04/27 12:58:27;;;;;;;20.10;11.52;;;17.00;11.50;;;;;;5002496;28;20413;-75
2022/04/27 13:00:53;;;;;;;20.60;10.37;;;17.20;12.20;;;;;;4997679;28;20558;-73